createdAt,value
2022-08-25T00:00:12.681Z,3.67
2022-08-25T00:02:39.787Z,3.33
2022-08-25T00:05:07.863Z,3.20
2022-08-25T00:07:36.507Z,3.80
2022-08-25T00:10:06.504Z,3.92
2022-08-25T00:12:33.925Z,3.42
2022-08-25T00:15:01.031Z,3.42
2022-08-25T00:17:28.227Z,3.80
2022-08-25T00:19:55.767Z,3.15
2022-08-25T00:22:23.366Z,3.13
2022-08-25T00:24:50.357Z,2.92
2022-08-25T00:27:18.780Z,3.42
2022-08-25T00:29:45.836Z,3.45
2022-08-25T00:32:13.410Z,2.95
2022-08-25T00:34:40.754Z,3.30
2022-08-25T00:37:09.470Z,3.35
2022-08-25T00:39:38.627Z,3.47
2022-08-25T00:42:15.837Z,3.40
2022-08-25T00:44:47.791Z,3.63
2022-08-25T00:47:15.859Z,3.45
2022-08-25T00:49:47.993Z,2.95
2022-08-25T00:52:31.632Z,3.35
2022-08-25T00:55:09.144Z,3.35
2022-08-25T00:57:58.252Z,2.80
2022-08-25T01:00:31.346Z,2.95
2022-08-25T01:02:59.563Z,2.67
2022-08-25T01:05:28.337Z,3.50
2022-08-25T01:07:58.521Z,3.03
2022-08-25T01:10:27.267Z,3.60
2022-08-25T01:13:01.327Z,3.03
2022-08-25T01:15:28.828Z,2.92
2022-08-25T01:17:57.640Z,3.05
2022-08-25T01:20:30.077Z,2.97
2022-08-25T01:22:59.542Z,3.08
2022-08-25T01:25:47.979Z,3.17
2022-08-25T01:28:15.657Z,3.42
2022-08-25T01:30:43.158Z,3.40
2022-08-25T01:33:12.375Z,3.78
2022-08-25T01:35:40.656Z,3.03
2022-08-25T01:38:09.179Z,3.53
2022-08-25T01:40:38.017Z,3.38
2022-08-25T01:43:18.313Z,3.42
2022-08-25T01:45:48.489Z,3.55
2022-08-25T01:48:16.558Z,3.00
2022-08-25T01:50:44.270Z,3.20
2022-08-25T01:53:26.442Z,3.10
2022-08-25T01:58:26.970Z,3.10
2022-08-25T02:00:57.611Z,3.83
2022-08-25T02:03:25.779Z,3.88
2022-08-25T02:05:53.998Z,2.90
2022-08-25T02:08:22.348Z,3.28
2022-08-25T02:10:50.296Z,3.58
2022-08-25T02:13:18.257Z,3.90
2022-08-25T02:15:49.801Z,3.58
2022-08-25T02:18:17.308Z,3.92
2022-08-25T02:20:44.843Z,3.38
2022-08-25T02:23:12.373Z,3.67
2022-08-25T02:25:41.542Z,3.55
2022-08-25T02:28:09.891Z,3.20
2022-08-25T02:30:38.716Z,4.13
2022-08-25T02:33:06.526Z,3.25
2022-08-25T02:35:33.939Z,3.45
2022-08-25T02:38:01.272Z,3.55
2022-08-25T02:40:28.519Z,3.38
2022-08-25T02:42:56.276Z,3.40
2022-08-25T02:45:23.489Z,2.97
2022-08-25T02:47:50.412Z,3.15
2022-08-25T02:50:17.709Z,3.45
2022-08-25T02:52:45.457Z,3.10
2022-08-25T02:55:14.378Z,3.53
2022-08-25T02:57:42.234Z,3.30
2022-08-25T03:00:12.651Z,3.40
2022-08-25T03:02:41.562Z,3.70
2022-08-25T03:05:10.311Z,3.42
2022-08-25T03:07:38.803Z,3.47
2022-08-25T03:10:13.863Z,3.63
2022-08-25T03:12:41.823Z,3.72
2022-08-25T03:15:12.896Z,3.53
2022-08-25T03:17:45.564Z,3.45
2022-08-25T03:20:13.526Z,3.28
2022-08-25T03:22:40.838Z,3.45
2022-08-25T03:25:27.339Z,3.30
2022-08-25T03:27:54.455Z,3.17
2022-08-25T03:30:22.102Z,3.50
2022-08-25T03:32:49.432Z,3.40
2022-08-25T03:35:16.551Z,3.85
2022-08-25T03:37:44.101Z,3.15
2022-08-25T03:40:15.487Z,3.80
2022-08-25T03:42:46.000Z,3.92
2022-08-25T03:45:14.544Z,4.53
2022-08-25T03:47:42.716Z,4.18
2022-08-25T03:50:11.618Z,4.18
2022-08-25T03:52:42.408Z,4.30
2022-08-25T03:55:13.639Z,4.22
2022-08-25T03:57:40.658Z,3.65
2022-08-25T04:00:09.663Z,3.53
2022-08-25T04:02:40.017Z,3.60
2022-08-25T04:05:08.181Z,4.07
2022-08-25T04:07:37.193Z,3.85
2022-08-25T04:10:06.635Z,4.07
2022-08-25T04:12:35.407Z,3.80
2022-08-25T04:15:04.825Z,3.80
2022-08-25T04:17:32.429Z,3.97
2022-08-25T04:19:59.847Z,3.90
2022-08-25T04:22:27.624Z,3.83
2022-08-25T04:24:58.413Z,3.80
2022-08-25T04:27:25.698Z,3.53
2022-08-25T04:29:52.864Z,3.30
2022-08-25T04:32:20.877Z,3.65
2022-08-25T04:34:49.155Z,3.67
2022-08-25T04:37:17.050Z,3.90
2022-08-25T04:39:44.130Z,3.63
2022-08-25T04:42:11.497Z,3.53
2022-08-25T04:44:39.248Z,4.68
2022-08-25T04:47:06.377Z,3.22
2022-08-25T04:49:33.497Z,3.80
2022-08-25T04:52:00.664Z,3.60
2022-08-25T04:54:28.306Z,3.80
2022-08-25T04:56:57.957Z,3.70
2022-08-25T04:59:27.359Z,3.45
2022-08-25T05:02:02.060Z,3.40
2022-08-25T05:04:29.349Z,3.97
2022-08-25T05:06:57.601Z,4.22
2022-08-25T05:09:25.664Z,3.65
2022-08-25T05:11:53.478Z,3.67
2022-08-25T05:14:25.544Z,3.58
2022-08-25T05:16:55.066Z,3.97
2022-08-25T05:19:23.921Z,3.42
2022-08-25T05:21:51.486Z,3.78
2022-08-25T05:24:18.975Z,3.95
2022-08-25T05:26:46.148Z,3.42
2022-08-25T05:29:14.440Z,4.28
2022-08-25T05:31:47.001Z,3.55
2022-08-25T05:34:15.687Z,4.15
2022-08-25T05:36:43.635Z,4.28
2022-08-25T05:39:11.560Z,3.60
2022-08-25T05:41:40.849Z,3.72
2022-08-25T05:44:08.878Z,3.92
2022-08-25T05:46:36.964Z,4.28
2022-08-25T05:49:04.273Z,3.90
2022-08-25T05:51:31.338Z,4.07
2022-08-25T05:53:58.564Z,3.72
2022-08-25T05:56:25.804Z,3.63
2022-08-25T05:58:52.887Z,3.58
2022-08-25T06:01:47.519Z,3.85
2022-08-25T06:04:19.008Z,4.40
2022-08-25T06:06:46.138Z,4.85
2022-08-25T06:09:13.457Z,4.32
2022-08-25T06:11:41.471Z,4.15
2022-08-25T06:14:10.522Z,4.07
2022-08-25T06:16:39.306Z,4.45
2022-08-25T06:19:07.391Z,5.03
2022-08-25T06:21:35.269Z,4.35
2022-08-25T06:24:02.479Z,4.13
2022-08-25T06:26:29.537Z,4.60
2022-08-25T06:28:56.916Z,4.35
2022-08-25T06:31:24.359Z,4.07
2022-08-25T06:33:53.884Z,4.55
2022-08-25T06:36:21.300Z,4.35
2022-08-25T06:38:48.713Z,3.90
2022-08-25T06:41:16.864Z,4.32
2022-08-25T06:43:48.972Z,4.13
2022-08-25T06:46:23.088Z,3.35
2022-08-25T06:49:03.133Z,3.65
2022-08-25T06:51:30.337Z,2.90
2022-08-25T06:53:57.512Z,3.08
2022-08-25T06:56:24.806Z,3.22
2022-08-25T06:58:53.864Z,4.05
2022-08-25T07:01:27.753Z,2.95
2022-08-25T07:03:57.589Z,3.63
2022-08-25T07:06:26.633Z,2.60
2022-08-25T07:08:54.715Z,2.83
2022-08-25T07:11:21.900Z,3.10
2022-08-25T07:13:49.495Z,2.88
2022-08-25T07:16:18.081Z,2.38
2022-08-25T07:18:46.059Z,2.72
2022-08-25T07:21:14.310Z,2.53
2022-08-25T07:23:42.112Z,2.60
2022-08-25T07:26:33.705Z,2.50
2022-08-25T07:29:00.054Z,2.50
2022-08-25T07:31:29.726Z,2.15
2022-08-25T07:34:16.696Z,1.73
2022-08-25T07:36:44.640Z,2.25
2022-08-25T07:39:12.574Z,2.42
2022-08-25T07:41:41.667Z,2.42
2022-08-25T07:44:11.070Z,2.55
2022-08-25T07:46:38.560Z,1.88
2022-08-25T07:49:16.479Z,2.03
2022-08-25T07:52:03.930Z,2.38
2022-08-25T07:54:34.519Z,2.30
2022-08-25T07:57:03.850Z,2.05
2022-08-25T07:59:38.936Z,2.78
2022-08-25T08:02:17.676Z,2.30
2022-08-25T08:04:49.497Z,1.70
2022-08-25T08:07:22.892Z,1.95
2022-08-25T08:10:00.453Z,2.20
2022-08-25T08:12:38.669Z,2.30
2022-08-25T08:15:10.409Z,2.20
2022-08-25T08:17:38.994Z,2.20
2022-08-25T08:20:09.094Z,2.17
2022-08-25T08:22:38.104Z,1.80
2022-08-25T08:25:10.611Z,2.30
2022-08-25T08:27:42.976Z,1.90
2022-08-25T08:30:11.814Z,2.10
2022-08-25T08:33:05.890Z,2.33
2022-08-25T08:35:27.055Z,2.05
2022-08-25T08:37:54.183Z,1.80
2022-08-25T08:40:21.686Z,2.30
2022-08-25T08:43:06.387Z,2.10
2022-08-25T08:45:44.127Z,1.92
2022-08-25T08:48:36.106Z,1.85
2022-08-25T08:51:25.282Z,1.88
2022-08-25T08:54:16.677Z,2.03
2022-08-25T08:56:49.494Z,2.28
2022-08-25T08:59:19.706Z,2.03
2022-08-25T09:02:02.301Z,1.67
2022-08-25T09:04:49.014Z,1.35
2022-08-25T09:07:29.905Z,1.73
2022-08-25T09:09:59.915Z,1.80
2022-08-25T09:12:38.165Z,1.90
2022-08-25T09:15:55.448Z,1.73
2022-08-25T09:18:52.573Z,1.60
2022-08-25T09:21:43.803Z,1.60
2022-08-25T09:24:32.848Z,1.40
2022-08-25T09:27:25.357Z,1.48
2022-08-25T09:30:15.353Z,1.50
2022-08-25T09:32:52.283Z,1.80
2022-08-25T09:35:34.317Z,1.60
2022-08-25T09:38:10.694Z,1.33
2022-08-25T09:40:45.430Z,1.60
2022-08-25T09:43:29.972Z,1.40
2022-08-25T09:46:05.946Z,1.48
2022-08-25T09:48:42.318Z,1.58
2022-08-25T09:51:43.073Z,1.50
2022-08-25T09:54:13.936Z,1.48
2022-08-25T09:57:08.675Z,1.67
2022-08-25T09:59:38.129Z,1.58
2022-08-25T10:02:33.099Z,1.30
2022-08-25T10:05:17.496Z,1.10
2022-08-25T10:07:59.336Z,1.10
2022-08-25T10:10:32.332Z,1.27
2022-08-25T10:13:01.791Z,1.23
2022-08-25T10:15:38.143Z,1.30
2022-08-25T10:18:37.619Z,1.25
2022-08-25T10:21:10.062Z,1.00
2022-08-25T10:23:52.596Z,1.35
2022-08-25T10:26:37.177Z,1.33
2022-08-25T10:30:02.912Z,1.38
2022-08-25T10:33:07.896Z,1.20
2022-08-25T10:35:53.219Z,1.20
2022-08-25T10:38:51.877Z,1.90
2022-08-25T10:41:45.978Z,1.35
2022-08-25T10:44:58.588Z,1.50
2022-08-25T10:47:44.709Z,1.50
2022-08-25T10:50:37.513Z,1.15
2022-08-25T10:53:27.506Z,1.20
2022-08-25T10:56:13.210Z,1.30
2022-08-25T10:59:13.495Z,1.10
2022-08-25T11:01:46.463Z,1.45
2022-08-25T11:04:29.947Z,1.30
2022-08-25T11:07:08.425Z,1.17
2022-08-25T11:09:41.839Z,1.52
2022-08-25T11:12:46.124Z,1.30
2022-08-25T11:15:20.344Z,1.35
2022-08-25T11:17:51.411Z,1.63
2022-08-25T11:20:26.862Z,1.73
2022-08-25T11:23:17.414Z,1.80
2022-08-25T11:25:50.962Z,1.60
2022-08-25T11:28:36.085Z,1.30
2022-08-25T11:31:04.385Z,1.67
2022-08-25T11:33:33.711Z,1.30
2022-08-25T11:36:06.965Z,1.20
2022-08-25T11:39:04.199Z,1.50
2022-08-25T11:41:49.952Z,1.40
2022-08-25T11:45:00.578Z,1.02
2022-08-25T11:47:39.544Z,2.25
2022-08-25T11:50:24.119Z,1.35
2022-08-25T11:53:01.797Z,1.45
2022-08-25T11:55:37.464Z,1.92
2022-08-25T11:58:30.704Z,1.48
2022-08-25T12:01:01.040Z,1.35
2022-08-25T12:03:37.342Z,1.23
2022-08-25T12:06:26.385Z,1.60
2022-08-25T12:09:17.809Z,1.52
2022-08-25T12:11:49.241Z,1.30
2022-08-25T12:14:22.031Z,1.38
2022-08-25T12:16:52.690Z,1.40
2022-08-25T12:19:34.691Z,1.67
2022-08-25T12:22:03.248Z,1.80
2022-08-25T12:24:47.296Z,1.10
2022-08-25T12:27:59.429Z,1.42
2022-08-25T12:30:30.987Z,1.83
2022-08-25T12:33:03.815Z,1.20
2022-08-25T12:35:37.412Z,1.77
2022-08-25T12:38:14.119Z,1.83
2022-08-25T12:40:46.255Z,1.42
2022-08-25T12:43:28.123Z,1.33
2022-08-25T12:46:30.506Z,1.80
2022-08-25T12:49:00.339Z,1.42
2022-08-25T12:51:28.326Z,1.90
2022-08-25T12:54:22.492Z,1.58
2022-08-25T12:57:03.198Z,1.50
2022-08-25T12:59:45.811Z,1.77
2022-08-25T13:02:57.959Z,1.40
2022-08-25T13:05:58.416Z,1.52
2022-08-25T13:08:37.153Z,1.50
2022-08-25T13:11:23.716Z,1.20
2022-08-25T13:14:26.998Z,1.20
2022-08-25T13:16:56.168Z,1.40
2022-08-25T13:19:25.530Z,1.30
2022-08-25T13:21:54.631Z,1.48
2022-08-25T13:24:24.201Z,1.30
2022-08-25T13:26:55.676Z,1.40
2022-08-25T13:29:35.084Z,2.10
2022-08-25T13:32:14.438Z,2.03
2022-08-25T13:34:43.827Z,1.63
2022-08-25T13:37:32.631Z,1.23
2022-08-25T13:40:26.394Z,1.50
2022-08-25T13:42:58.819Z,1.73
2022-08-25T13:45:31.701Z,1.45
2022-08-25T13:47:59.651Z,1.42
2022-08-25T13:50:27.027Z,1.38
2022-08-25T13:53:08.687Z,1.40
2022-08-25T13:56:00.554Z,1.60
2022-08-25T13:58:39.472Z,1.85
2022-08-25T14:01:47.841Z,1.40
2022-08-25T14:04:24.260Z,1.70
2022-08-25T14:07:22.387Z,1.50
2022-08-25T14:09:57.199Z,1.35
2022-08-25T14:12:44.926Z,1.60
2022-08-25T14:15:31.987Z,1.90
2022-08-25T14:18:08.029Z,1.80
2022-08-25T14:20:37.215Z,1.42
2022-08-25T14:23:09.870Z,1.52
2022-08-25T14:25:40.493Z,1.63
2022-08-25T14:28:18.888Z,1.40
2022-08-25T14:30:58.887Z,1.83
2022-08-25T14:33:32.767Z,1.50
2022-08-25T14:36:02.637Z,1.52
2022-08-25T14:38:29.528Z,1.77
2022-08-25T14:40:59.231Z,1.60
2022-08-25T14:43:31.491Z,1.33
2022-08-25T14:46:03.222Z,1.40
2022-08-25T14:48:35.667Z,1.50
2022-08-25T14:51:04.682Z,1.40
2022-08-25T14:53:32.461Z,1.42
2022-08-25T14:56:01.406Z,1.30
2022-08-25T14:58:35.984Z,1.90
2022-08-25T15:01:17.635Z,1.50
2022-08-25T15:04:08.090Z,1.30
2022-08-25T15:06:36.978Z,1.60
2022-08-25T15:09:07.916Z,1.48
2022-08-25T15:11:38.798Z,1.50
2022-08-25T15:14:11.059Z,1.25
2022-08-25T15:16:49.314Z,1.65
2022-08-25T15:19:19.385Z,1.45
2022-08-25T15:21:47.800Z,1.50
2022-08-25T15:24:17.367Z,1.40
2022-08-25T15:29:20.825Z,1.35
2022-08-25T15:31:48.028Z,1.50
2022-08-25T15:34:15.756Z,1.67
2022-08-25T15:36:43.304Z,1.65
2022-08-25T15:39:10.935Z,1.20
2022-08-25T15:41:38.425Z,1.27
2022-08-25T15:44:07.923Z,1.42
2022-08-25T15:46:36.242Z,1.55
2022-08-25T15:49:03.671Z,1.30
2022-08-25T15:51:31.273Z,1.65
2022-08-25T15:53:58.968Z,1.52
2022-08-25T15:56:27.200Z,1.60
2022-08-25T15:58:55.614Z,1.60
2022-08-25T16:01:28.059Z,1.45
2022-08-25T16:03:57.783Z,1.45
2022-08-25T16:06:26.828Z,1.55
2022-08-25T16:08:54.068Z,1.63
2022-08-25T16:11:26.569Z,1.27
2022-08-25T16:13:56.042Z,1.30
2022-08-25T16:16:25.722Z,1.20
2022-08-25T16:18:53.668Z,1.40
2022-08-25T16:21:25.616Z,1.48
2022-08-25T16:24:01.912Z,1.60
2022-08-25T16:26:31.733Z,1.45
2022-08-25T16:28:58.913Z,1.48
2022-08-25T16:31:26.466Z,1.20
2022-08-25T16:33:56.160Z,1.33
2022-08-25T16:36:28.440Z,1.25
2022-08-25T16:38:57.596Z,1.67
2022-08-25T16:41:27.202Z,1.20
2022-08-25T16:43:54.577Z,1.50
2022-08-25T16:46:23.798Z,1.10
2022-08-25T16:48:51.263Z,1.50
2022-08-25T16:51:22.756Z,1.35
2022-08-25T16:54:11.476Z,1.20
2022-08-25T16:56:42.385Z,1.20
2022-08-25T16:59:12.238Z,1.33
2022-08-25T17:01:42.031Z,1.75
2022-08-25T17:04:10.480Z,1.40
2022-08-25T17:06:49.560Z,1.33
2022-08-25T17:09:23.013Z,1.80
2022-08-25T17:11:54.373Z,2.15
2022-08-25T17:14:22.340Z,2.00
2022-08-25T17:16:51.330Z,1.70
2022-08-25T17:19:18.886Z,1.73
2022-08-25T17:21:47.082Z,2.10
2022-08-25T17:24:17.852Z,1.80
2022-08-25T17:26:49.766Z,2.08
2022-08-25T17:29:18.725Z,1.90
2022-08-25T17:31:48.453Z,1.70
2022-08-25T17:34:21.381Z,2.22
2022-08-25T17:36:54.032Z,2.47
2022-08-25T17:39:23.167Z,2.65
2022-08-25T17:41:51.508Z,3.00
2022-08-25T17:44:19.414Z,3.50
2022-08-25T17:46:47.970Z,3.30
2022-08-25T17:49:17.279Z,3.60
2022-08-25T18:29:56.218Z,4.72
2022-08-25T18:32:25.971Z,6.05
2022-08-25T18:34:56.822Z,5.45
2022-08-25T18:37:43.302Z,5.95
2022-08-25T18:40:23.068Z,5.68
2022-08-25T18:42:54.567Z,5.35
2022-08-25T18:45:25.718Z,5.55
2022-08-25T18:47:56.414Z,5.47
2022-08-25T18:50:26.209Z,5.57
2022-08-25T18:52:55.112Z,5.68
2022-08-25T18:55:23.091Z,4.93
2022-08-25T18:57:51.634Z,5.25
2022-08-25T19:00:23.044Z,6.00
2022-08-25T19:02:53.891Z,6.28
2022-08-25T19:05:24.723Z,6.28
2022-08-25T19:07:52.363Z,6.05
2022-08-25T19:10:20.961Z,5.70
2022-08-25T19:12:52.083Z,6.10
2022-08-25T19:15:19.226Z,5.63
2022-08-25T19:17:54.610Z,6.28
2022-08-25T19:20:23.060Z,5.88
2022-08-25T19:22:50.950Z,6.30
2022-08-25T19:25:20.539Z,6.65
2022-08-25T19:27:49.445Z,6.63
2022-08-25T19:30:19.160Z,8.05
2022-08-25T19:32:47.958Z,8.63
2022-08-25T19:35:22.510Z,11.43
2022-08-25T19:37:52.288Z,14.25
2022-08-25T19:40:21.359Z,13.68
2022-08-25T19:42:53.825Z,16.63
2022-08-25T19:45:24.005Z,19.65
2022-08-25T19:47:51.846Z,22.38
2022-08-25T19:50:21.377Z,22.67
2022-08-25T19:52:49.937Z,24.30
2022-08-25T19:55:17.689Z,24.95
2022-08-25T19:57:45.014Z,25.90
2022-08-25T20:00:17.404Z,25.45
2022-08-25T20:02:45.958Z,27.60
2022-08-25T20:05:14.696Z,28.92
2022-08-25T20:07:42.997Z,29.92
2022-08-25T20:10:14.147Z,31.80
2022-08-25T20:12:44.677Z,34.35
2022-08-25T20:15:14.234Z,35.70
2022-08-25T20:17:45.090Z,34.23
2022-08-25T20:20:15.752Z,38.08
2022-08-25T20:22:42.890Z,39.63
2022-08-25T20:25:14.142Z,38.58
2022-08-25T20:27:44.481Z,38.67
2022-08-25T20:30:25.374Z,39.55
2022-08-25T20:32:55.337Z,39.55
2022-08-25T20:35:26.793Z,36.78
2022-08-25T20:37:55.975Z,37.05
2022-08-25T20:40:25.450Z,36.22
2022-08-25T20:42:53.020Z,35.03
2022-08-25T20:45:22.749Z,34.60
2022-08-25T20:47:50.341Z,31.30
2022-08-25T20:50:18.494Z,32.08
2022-08-25T20:52:45.841Z,30.88
2022-08-25T20:55:15.382Z,29.45
2022-08-25T20:57:48.685Z,27.40
2022-08-25T21:00:16.623Z,25.15
2022-08-25T21:02:46.285Z,23.08
2022-08-25T21:05:13.545Z,23.98
2022-08-25T21:07:41.696Z,22.20
2022-08-25T21:10:14.409Z,21.90
2022-08-25T21:12:45.061Z,21.88
2022-08-25T21:15:18.062Z,21.63
2022-08-25T21:17:50.928Z,20.25
2022-08-25T21:20:18.451Z,19.13
2022-08-25T21:22:45.359Z,20.48
2022-08-25T21:25:13.326Z,20.15
2022-08-25T21:27:40.830Z,20.27
2022-08-25T21:30:11.534Z,19.38
2022-08-25T21:32:38.617Z,18.15
2022-08-25T21:35:07.935Z,18.55
2022-08-25T21:37:35.347Z,17.13
2022-08-25T21:40:02.398Z,16.48
2022-08-25T21:42:34.866Z,17.42
2022-08-25T21:45:02.719Z,16.58
2022-08-25T21:47:29.847Z,15.38
2022-08-25T21:49:57.126Z,15.50
2022-08-25T21:52:24.774Z,14.00
2022-08-25T21:54:52.053Z,14.82
2022-08-25T21:57:23.833Z,13.25
2022-08-25T21:59:51.777Z,13.90
2022-08-25T22:02:22.573Z,12.30
2022-08-25T22:04:53.809Z,13.23
2022-08-25T22:07:24.681Z,12.60
2022-08-25T22:09:52.368Z,12.40
2022-08-25T22:12:20.147Z,12.63
2022-08-25T22:14:47.140Z,11.50
2022-08-25T22:17:16.721Z,11.38
2022-08-25T22:19:45.998Z,10.52
2022-08-25T22:22:13.410Z,10.95
2022-08-25T22:24:40.686Z,10.80
2022-08-25T22:27:15.488Z,9.90
2022-08-25T22:29:44.498Z,10.18
2022-08-25T22:32:13.746Z,9.43
2022-08-25T22:34:43.715Z,9.85
2022-08-25T22:37:10.794Z,9.63
2022-08-25T22:39:38.511Z,9.35
2022-08-25T22:42:07.964Z,9.82
2022-08-25T22:44:38.754Z,8.95
2022-08-25T22:49:35.506Z,8.70
2022-08-25T22:52:03.321Z,9.30
2022-08-25T22:54:30.634Z,8.27
2022-08-25T22:57:04.582Z,8.07
2022-08-25T22:59:33.466Z,8.10
2022-08-25T23:02:00.868Z,8.07
2022-08-25T23:04:27.918Z,8.48
2022-08-25T23:06:54.925Z,8.57
2022-08-25T23:09:22.261Z,8.23
2022-08-25T23:11:52.143Z,8.18
2022-08-25T23:14:20.086Z,8.85
2022-08-25T23:16:49.882Z,9.55
2022-08-25T23:19:20.901Z,8.40
2022-08-25T23:22:08.384Z,8.60
2022-08-25T23:24:43.004Z,9.07
2022-08-25T23:27:13.791Z,9.48
2022-08-25T23:29:43.938Z,9.50
2022-08-25T23:32:14.383Z,10.52
2022-08-25T23:34:43.059Z,9.65
2022-08-25T23:37:15.178Z,9.65
2022-08-25T23:39:47.567Z,8.88
2022-08-25T23:42:20.504Z,10.63
2022-08-25T23:44:49.296Z,10.15
2022-08-25T23:47:20.850Z,11.23
2022-08-25T23:49:48.310Z,11.68
2022-08-25T23:52:17.777Z,11.88
2022-08-25T23:54:47.558Z,10.93
2022-08-25T23:57:15.006Z,10.85
2022-08-25T23:59:43.277Z,10.57
